Time;durP1;ratioP1;P1;durP2;ratioP2;P2;SDS_P1;SDS_P2;PMS_P1;PMS_P2;Temp;Humidity;BMP_temperature;BMP_pressure;BME280_temperature;BME280_humidity;BME280_pressure;Samples;Min_cycle;Max_cycle;Signal;HPM_P1;HPM_P2
2023/01/16 00:02:26;;;;;;;69.00;37.40;;;7.50;99.90;;;;;;6255166;28;20439;-66
2023/01/16 00:05:29;;;;;;;22.87;13.30;;;7.50;99.90;;;;;;6263994;28;20504;-65
2023/01/16 00:08:32;;;;;;;29.47;17.00;;;7.60;99.90;;;;;;6265573;28;20793;-66
2023/01/16 00:11:37;;;;;;;7.83;5.70;;;7.60;99.90;;;;;;6268216;28;20446;-66
2023/01/16 00:14:40;;;;;;;4.17;3.40;;;7.60;99.90;;;;;;6262974;28;20450;-66
2023/01/16 00:17:43;;;;;;;3.73;2.37;;;7.60;99.90;;;;;;6269977;28;20812;-65
2023/01/16 00:20:48;;;;;;;2.17;1.93;;;7.60;99.90;;;;;;6264977;28;20466;-66
2023/01/16 00:23:51;;;;;;;2.20;2.00;;;7.60;99.90;;;;;;6263347;28;20469;-66
2023/01/16 00:26:56;;;;;;;16.07;10.60;;;7.60;99.90;;;;;;6265277;28;20466;-66
2023/01/16 00:29:59;;;;;;;10.80;8.10;;;7.70;99.90;;;;;;6265219;28;20494;-66
2023/01/16 00:33:03;;;;;;;7.53;4.87;;;7.60;99.90;;;;;;6267255;28;20462;-66
2023/01/16 00:36:07;;;;;;;15.20;10.90;;;7.60;99.90;;;;;;6265587;28;20474;-66
2023/01/16 00:39:10;;;;;;;6.43;5.20;;;7.60;99.90;;;;;;6260687;28;20473;-66
2023/01/16 00:42:15;;;;;;;8.23;5.60;;;7.50;99.90;;;;;;6264345;28;20477;-66
2023/01/16 00:45:19;;;;;;;6.17;4.60;;;7.40;99.90;;;;;;6268150;28;20482;-66
2023/01/16 00:48:22;;;;;;;5.83;4.50;;;7.40;99.90;;;;;;6276827;28;20779;-66
2023/01/16 00:51:25;;;;;;;7.40;5.40;;;7.40;99.90;;;;;;6277083;28;20954;-67
2023/01/16 00:54:28;;;;;;;12.90;7.17;;;7.40;99.90;;;;;;6277110;28;20481;-69
2023/01/16 00:57:33;;;;;;;10.23;5.57;;;7.40;99.90;;;;;;6276702;28;20473;-66
2023/01/16 01:00:37;;;;;;;3.67;3.37;;;7.40;99.90;;;;;;6267537;28;20501;-66
2023/01/16 01:03:40;;;;;;;3.30;3.00;;;7.50;99.90;;;;;;6256886;28;20470;-66
2023/01/16 01:06:43;;;;;;;6.13;3.97;;;7.50;99.90;;;;;;6263035;28;20839;-66
2023/01/16 01:09:46;;;;;;;5.03;3.97;;;7.40;99.90;;;;;;6262438;28;21893;-67
2023/01/16 01:12:54;;;;;;;4.80;3.13;;;7.40;99.90;;;;;;6262883;28;20471;-66
2023/01/16 01:15:57;;;;;;;4.03;3.67;;;7.20;99.90;;;;;;6264067;28;20540;-66
2023/01/16 01:19:00;;;;;;;6.50;4.20;;;7.20;99.90;;;;;;6264460;28;20915;-66
2023/01/16 01:22:21;;;;;;;2.30;2.10;;;7.20;99.90;;;;;;6264755;28;20927;-66
2023/01/16 01:25:25;;;;;;;4.07;3.50;;;7.00;99.90;;;;;;6268263;28;20515;-65
2023/01/16 01:28:29;;;;;;;3.17;2.80;;;7.00;99.90;;;;;;6252373;28;20474;-65
2023/01/16 01:31:32;;;;;;;3.80;3.40;;;6.90;99.90;;;;;;6261911;28;20989;-66
2023/01/16 01:34:36;;;;;;;4.83;3.77;;;6.90;99.90;;;;;;6262749;28;20616;-66
2023/01/16 01:37:40;;;;;;;3.50;2.73;;;6.90;99.90;;;;;;6264926;28;20474;-65
2023/01/16 01:40:43;;;;;;;3.47;2.43;;;7.00;99.90;;;;;;6261574;28;20803;-66
2023/01/16 01:43:49;;;;;;;3.70;2.40;;;7.00;99.90;;;;;;6263703;28;20474;-66
2023/01/16 01:46:53;;;;;;;3.07;2.40;;;6.70;99.90;;;;;;6262883;28;20515;-66
2023/01/16 01:49:58;;;;;;;3.20;2.60;;;6.70;99.90;;;;;;6262174;28;20827;-66
2023/01/16 01:53:05;;;;;;;3.70;3.30;;;6.70;99.90;;;;;;6261286;28;20470;-67
2023/01/16 01:56:13;;;;;;;2.70;2.50;;;6.80;99.90;;;;;;6263410;28;20471;-65
2023/01/16 01:59:21;;;;;;;4.10;2.60;;;6.70;99.90;;;;;;6261279;28;20798;-66
2023/01/16 02:02:27;;;;;;;3.30;2.40;;;6.80;99.90;;;;;;6261377;28;20462;-66
2023/01/16 02:05:34;;;;;;;2.57;2.13;;;6.80;99.90;;;;;;6261724;28;20446;-66
2023/01/16 02:08:37;;;;;;;2.20;2.00;;;6.70;99.90;;;;;;6261516;28;20462;-66
2023/01/16 02:11:47;;;;;;;2.13;1.93;;;6.80;99.90;;;;;;6260451;28;20450;-66
2023/01/16 02:14:51;;;;;;;2.53;2.33;;;6.90;99.90;;;;;;6264952;28;20462;-66
2023/01/16 02:21:37;;;;;;;8.43;7.50;;;7.10;99.90;;;;;;6261148;28;20475;-65
2023/01/16 02:25:07;;;;;;;16.17;12.43;;;7.00;99.90;;;;;;6261502;28;20471;-65
2023/01/16 02:28:40;;;;;;;7.17;5.00;;;7.00;99.90;;;;;;6262813;28;20959;-65
2023/01/16 02:31:51;;;;;;;6.50;4.70;;;7.00;99.90;;;;;;6252787;28;20463;-65
2023/01/16 02:35:11;;;;;;;1.63;1.53;;;7.00;99.90;;;;;;6260573;28;20499;-65
2023/01/16 02:38:21;;;;;;;1.87;1.67;;;6.80;99.90;;;;;;6260819;28;20479;-65
2023/01/16 02:41:31;;;;;;;1.53;1.43;;;6.70;99.90;;;;;;6260373;28;20470;-65
2023/01/16 02:44:41;;;;;;;1.77;1.67;;;6.80;99.90;;;;;;6260986;28;20431;-66
2023/01/16 02:47:55;;;;;;;1.53;1.43;;;6.80;99.90;;;;;;6261482;28;20463;-65
2023/01/16 02:51:05;;;;;;;1.17;1.07;;;6.70;99.90;;;;;;6260486;28;20470;-65
2023/01/16 02:54:14;;;;;;;1.10;1.10;;;6.40;99.90;;;;;;6260355;28;20470;-65
2023/01/16 02:57:19;;;;;;;1.30;1.20;;;6.10;99.90;;;;;;6260784;28;20478;-65
2023/01/16 03:00:22;;;;;;;1.53;1.07;;;5.90;99.90;;;;;;6259668;28;20474;-66
2023/01/16 03:03:47;;;;;;;1.10;1.00;;;5.80;99.90;;;;;;6265883;28;20485;-66
2023/01/16 03:07:00;;;;;;;1.07;1.00;;;5.50;99.90;;;;;;6260714;28;20482;-66
2023/01/16 03:10:33;;;;;;;1.30;1.20;;;5.50;99.90;;;;;;6258934;28;20475;-65
2023/01/16 03:13:55;;;;;;;1.07;0.97;;;5.50;99.90;;;;;;6260304;28;20473;-65
2023/01/16 03:17:14;;;;;;;1.10;1.10;;;5.50;99.90;;;;;;6265194;28;20467;-65
2023/01/16 03:20:28;;;;;;;1.00;1.00;;;5.40;99.90;;;;;;6260160;28;20490;-66
2023/01/16 03:23:41;;;;;;;1.17;1.00;;;5.40;99.90;;;;;;6269361;28;20446;-66
2023/01/16 03:26:47;;;;;;;0.90;0.90;;;5.50;99.90;;;;;;6292425;28;20453;-66
2023/01/16 03:29:55;;;;;;;1.00;1.00;;;5.50;99.90;;;;;;6298880;28;20465;-65
2023/01/16 03:33:04;;;;;;;1.03;1.03;;;5.50;99.90;;;;;;6289908;28;20465;-65
2023/01/16 03:36:12;;;;;;;1.13;1.00;;;5.60;99.90;;;;;;6298919;28;20469;-66
2023/01/16 03:39:21;;;;;;;1.27;1.17;;;5.50;99.90;;;;;;6298680;28;20790;-65
2023/01/16 03:42:33;;;;;;;1.20;1.10;;;5.60;99.90;;;;;;6298709;28;20801;-65
2023/01/16 03:45:41;;;;;;;1.00;1.00;;;5.50;99.90;;;;;;6298749;28;20757;-65
2023/01/16 03:48:49;;;;;;;1.93;0.90;;;5.50;99.90;;;;;;6299152;28;20485;-65
2023/01/16 03:51:59;;;;;;;0.80;0.80;;;5.50;99.90;;;;;;6298533;28;20956;-66
2023/01/16 03:55:09;;;;;;;1.23;1.13;;;5.50;99.90;;;;;;6289077;28;20795;-66
2023/01/16 03:58:20;;;;;;;1.07;1.00;;;5.50;99.90;;;;;;6273438;28;20516;-65
2023/01/16 04:01:32;;;;;;;1.00;1.00;;;5.50;99.90;;;;;;6273742;28;20470;-65
2023/01/16 04:04:45;;;;;;;1.07;1.07;;;5.40;99.90;;;;;;6274386;28;20473;-65
2023/01/16 04:07:56;;;;;;;0.97;0.97;;;5.40;99.90;;;;;;6277988;28;20480;-65
2023/01/16 04:11:00;;;;;;;1.27;1.17;;;5.30;99.90;;;;;;6278082;28;20477;-65
2023/01/16 04:14:06;;;;;;;1.50;1.40;;;5.30;99.90;;;;;;6278208;28;20569;-64
2023/01/16 04:17:10;;;;;;;1.97;1.87;;;5.20;99.90;;;;;;6278211;28;20481;-65
2023/01/16 04:20:14;;;;;;;2.10;1.90;;;5.00;99.90;;;;;;6277709;28;20912;-64
2023/01/16 04:23:18;;;;;;;1.50;1.37;;;5.00;99.90;;;;;;6277721;28;20474;-65
2023/01/16 04:26:21;;;;;;;1.30;1.20;;;4.90;99.90;;;;;;6290085;28;20469;-65
2023/01/16 04:29:25;;;;;;;1.53;1.40;;;4.90;99.90;;;;;;6302464;28;20468;-64
2023/01/16 04:32:28;;;;;;;1.17;1.17;;;4.80;99.90;;;;;;6302319;28;20905;-64
2023/01/16 04:35:32;;;;;;;1.40;1.30;;;4.80;99.90;;;;;;6297733;28;20445;-66
2023/01/16 04:38:37;;;;;;;1.90;1.80;;;4.80;99.90;;;;;;6302204;28;20934;-65
2023/01/16 04:41:40;;;;;;;2.10;1.90;;;4.70;99.90;;;;;;6301986;28;20445;-65
2023/01/16 04:44:44;;;;;;;2.50;2.30;;;4.70;99.90;;;;;;6302286;28;20461;-64
2023/01/16 04:47:47;;;;;;;2.50;2.30;;;4.70;99.90;;;;;;6302259;28;20465;-64
2023/01/16 04:50:51;;;;;;;2.33;2.13;;;4.60;99.90;;;;;;6301532;28;20806;-65
2023/01/16 04:53:55;;;;;;;2.23;2.03;;;4.60;99.90;;;;;;6302410;28;20453;-65
2023/01/16 04:56:58;;;;;;;2.50;2.40;;;4.70;99.90;;;;;;6301693;28;20461;-64
2023/01/16 05:00:02;;;;;;;2.63;2.43;;;4.70;99.90;;;;;;6301645;28;20464;-65
2023/01/16 05:03:06;;;;;;;6.13;5.63;;;4.80;99.90;;;;;;6301773;28;20476;-65
2023/01/16 05:06:09;;;;;;;3.30;3.03;;;4.90;99.90;;;;;;6301941;28;20475;-65
2023/01/16 05:09:14;;;;;;;2.33;2.23;;;4.90;99.90;;;;;;6301594;28;20783;-65
2023/01/16 05:12:17;;;;;;;3.27;3.00;;;5.00;99.90;;;;;;6301632;28;20476;-65
2023/01/16 05:15:20;;;;;;;3.40;3.10;;;5.00;99.90;;;;;;6297686;28;20481;-65
2023/01/16 05:18:24;;;;;;;3.90;3.60;;;5.00;99.90;;;;;;6275620;28;20790;-65
2023/01/16 05:21:27;;;;;;;3.67;3.17;;;5.00;99.90;;;;;;6276182;28;20957;-65
2023/01/16 05:24:32;;;;;;;3.00;2.70;;;5.00;99.90;;;;;;6276429;28;20473;-66
2023/01/16 05:27:35;;;;;;;2.43;2.23;;;5.10;99.90;;;;;;6276784;28;20477;-66
2023/01/16 05:30:38;;;;;;;2.80;2.60;;;5.10;99.90;;;;;;6276804;28;20834;-66
2023/01/16 05:33:43;;;;;;;3.20;3.00;;;5.10;99.90;;;;;;6276751;28;20466;-66
2023/01/16 05:36:46;;;;;;;2.27;2.17;;;5.10;99.90;;;;;;6275981;28;20466;-66
2023/01/16 05:39:51;;;;;;;2.63;2.40;;;5.10;99.90;;;;;;6266857;28;20497;-65
2023/01/16 05:42:54;;;;;;;2.27;2.17;;;5.00;99.90;;;;;;6275875;28;20478;-66
2023/01/16 05:45:57;;;;;;;2.80;2.27;;;4.90;99.90;;;;;;6262411;28;20467;-66
2023/01/16 05:49:00;;;;;;;2.47;2.27;;;4.90;99.90;;;;;;6250544;28;20967;-66
2023/01/16 05:52:04;;;;;;;2.40;2.20;;;4.90;99.90;;;;;;6250465;28;20467;-66
2023/01/16 05:55:09;;;;;;;2.10;1.97;;;4.90;99.90;;;;;;6250630;28;20471;-66
2023/01/16 05:58:14;;;;;;;2.43;2.23;;;4.90;99.90;;;;;;6250824;28;20483;-66
2023/01/16 06:01:17;;;;;;;3.10;2.90;;;5.00;99.90;;;;;;6250414;28;20860;-66
2023/01/16 06:04:20;;;;;;;2.97;2.77;;;4.90;99.90;;;;;;6250758;28;20498;-66
2023/01/16 06:07:24;;;;;;;2.83;2.63;;;4.80;99.90;;;;;;6250167;28;20471;-65
2023/01/16 06:10:29;;;;;;;3.30;2.60;;;4.80;99.90;;;;;;6250450;28;20801;-66
2023/01/16 06:13:32;;;;;;;2.10;2.00;;;4.80;99.90;;;;;;6250743;28;20776;-66
2023/01/16 06:16:35;;;;;;;2.90;2.70;;;4.80;99.90;;;;;;6278941;28;20468;-66
2023/01/16 06:19:38;;;;;;;2.50;2.30;;;4.90;99.90;;;;;;6299764;28;20792;-66
2023/01/16 06:22:41;;;;;;;2.67;2.40;;;4.90;99.90;;;;;;6299639;28;20484;-67
2023/01/16 06:25:49;;;;;;;2.77;2.57;;;5.00;99.90;;;;;;6292633;28;20474;-66
2023/01/16 06:28:54;;;;;;;3.50;3.20;;;4.90;99.90;;;;;;6274845;28;20564;-67
2023/01/16 06:31:57;;;;;;;3.17;2.90;;;5.00;99.90;;;;;;6275170;28;20470;-66
2023/01/16 06:35:00;;;;;;;3.20;2.90;;;5.00;99.90;;;;;;6274847;28;20489;-66
2023/01/16 06:38:03;;;;;;;2.83;2.60;;;5.00;99.90;;;;;;6274667;28;20804;-67
2023/01/16 06:41:08;;;;;;;4.40;4.00;;;5.00;99.90;;;;;;6274503;28;20821;-66
2023/01/16 06:44:11;;;;;;;5.53;2.87;;;5.00;99.90;;;;;;6270367;28;20477;-66
2023/01/16 06:47:15;;;;;;;4.30;3.37;;;5.10;99.90;;;;;;6273892;28;20569;-66
2023/01/16 06:50:19;;;;;;;4.00;3.60;;;5.10;99.90;;;;;;6271829;28;20490;-66
2023/01/16 06:53:22;;;;;;;3.50;3.20;;;5.00;99.90;;;;;;6274193;28;20470;-66
2023/01/16 06:56:26;;;;;;;5.00;4.50;;;4.90;99.90;;;;;;6270822;28;20752;-66
2023/01/16 06:59:30;;;;;;;4.27;3.83;;;4.90;99.90;;;;;;6273009;28;20459;-65
2023/01/16 07:02:33;;;;;;;5.90;5.40;;;5.00;99.90;;;;;;6272391;28;20461;-65
2023/01/16 07:05:36;;;;;;;5.47;5.07;;;4.90;99.90;;;;;;6272645;28;20434;-65
2023/01/16 07:08:39;;;;;;;6.60;6.10;;;4.80;99.90;;;;;;6271770;28;20973;-65
2023/01/16 07:11:45;;;;;;;4.17;3.77;;;4.80;99.90;;;;;;6273029;28;20442;-64
2023/01/16 07:24:55;;;;;;;4.07;3.60;;;4.90;99.90;;;;;;6272196;28;20474;-65
2023/01/16 07:28:01;;;;;;;4.33;4.03;;;5.00;99.90;;;;;;6296813;28;20488;-65
2023/01/16 07:31:06;;;;;;;3.93;3.67;;;5.00;99.90;;;;;;6297303;28;20808;-64
2023/01/16 07:34:09;;;;;;;5.10;4.60;;;4.90;99.90;;;;;;6296382;28;20488;-64
2023/01/16 07:37:13;;;;;;;4.27;3.87;;;4.90;99.90;;;;;;6297076;28;20477;-64
2023/01/16 07:40:16;;;;;;;6.20;4.20;;;5.00;99.90;;;;;;6299283;28;20473;-64
2023/01/16 07:43:21;;;;;;;6.83;6.33;;;5.00;99.90;;;;;;6302122;28;20777;-64
2023/01/16 07:46:24;;;;;;;6.93;6.33;;;4.90;99.90;;;;;;6301644;28;20488;-63
2023/01/16 07:49:27;;;;;;;7.30;6.60;;;4.90;99.90;;;;;;6291823;28;20834;-62
2023/01/16 07:52:30;;;;;;;7.03;6.33;;;4.90;99.90;;;;;;6276699;28;20985;-63
2023/01/16 07:55:33;;;;;;;9.47;8.57;;;4.90;99.90;;;;;;6275392;28;20488;-63
2023/01/16 07:58:41;;;;;;;8.30;7.50;;;4.90;99.90;;;;;;6271452;28;20860;-63
2023/01/16 08:01:45;;;;;;;7.20;6.50;;;4.90;99.90;;;;;;6277037;28;20486;-65
2023/01/16 08:04:48;;;;;;;9.67;8.20;;;4.80;99.90;;;;;;6277217;28;20474;-64
2023/01/16 08:07:51;;;;;;;9.07;8.07;;;4.80;99.90;;;;;;6276002;28;20481;-62
2023/01/16 08:10:55;;;;;;;8.50;7.67;;;4.90;99.90;;;;;;6276008;28;20476;-66
2023/01/16 08:14:00;;;;;;;9.37;8.33;;;4.90;99.90;;;;;;6275308;28;20968;-65
2023/01/16 08:17:04;;;;;;;10.40;8.70;;;4.80;99.90;;;;;;6276312;28;20474;-65
2023/01/16 08:20:08;;;;;;;9.77;8.27;;;4.80;99.90;;;;;;6275763;28;20811;-66
2023/01/16 08:23:12;;;;;;;10.37;8.83;;;4.70;99.90;;;;;;6275721;28;20465;-61
2023/01/16 08:26:15;;;;;;;12.03;10.00;;;4.60;99.90;;;;;;6287068;28;20476;-61
2023/01/16 08:29:20;;;;;;;15.80;10.43;;;4.60;99.90;;;;;;6300762;28;20488;-61
2023/01/16 08:32:23;;;;;;;10.90;9.23;;;4.60;99.90;;;;;;6300552;28;20495;-61
2023/01/16 08:35:26;;;;;;;20.07;10.63;;;4.60;99.90;;;;;;6300486;28;20674;-61
2023/01/16 08:38:30;;;;;;;15.33;11.03;;;4.70;99.90;;;;;;6300097;28;20476;-63
2023/01/16 08:51:42;;;;;;;15.90;12.03;;;4.50;99.90;;;;;;6249689;28;20471;-61
2023/01/16 08:54:48;;;;;;;16.83;11.83;;;4.50;99.90;;;;;;6250909;28;20615;-61
2023/01/16 08:57:51;;;;;;;13.67;10.83;;;4.60;99.90;;;;;;6268928;28;20477;-61
2023/01/16 09:00:55;;;;;;;21.83;11.60;;;4.60;99.90;;;;;;6274758;28;20509;-61
2023/01/16 09:03:59;;;;;;;15.47;11.90;;;4.70;99.90;;;;;;6275629;28;20477;-61
2023/01/16 09:07:02;;;;;;;15.20;11.70;;;4.70;99.90;;;;;;6275420;28;20470;-61
2023/01/16 09:10:06;;;;;;;15.17;11.00;;;4.80;99.90;;;;;;6275366;28;20511;-62
2023/01/16 09:16:43;;;;;;;15.30;11.40;;;4.80;99.90;;;;;;6246981;28;20472;-62
2023/01/16 09:19:46;;;;;;;12.40;10.27;;;4.80;99.90;;;;;;6274926;28;20493;-63
2023/01/16 09:22:49;;;;;;;15.53;11.53;;;4.80;99.90;;;;;;6274682;28;20470;-62
2023/01/16 09:25:52;;;;;;;17.27;11.70;;;4.80;99.90;;;;;;6283571;28;20469;-61
2023/01/16 09:28:56;;;;;;;16.03;11.33;;;4.90;99.90;;;;;;6299756;28;20492;-61
2023/01/16 09:32:07;;;;;;;16.63;10.07;;;5.00;99.90;;;;;;6299618;28;20484;-62
2023/01/16 09:35:10;;;;;;;10.77;9.70;;;5.00;99.90;;;;;;6299660;28;20469;-62
2023/01/16 09:38:13;;;;;;;14.73;10.83;;;5.00;99.90;;;;;;6299278;28;20517;-62
2023/01/16 09:44:37;;;;;;;10.53;8.27;;;5.00;99.90;;;;;;6299401;28;20445;-62
2023/01/16 09:47:44;;;;;;;14.43;10.37;;;5.00;99.90;;;;;;6299191;28;20477;-61
2023/01/16 09:50:52;;;;;;;10.80;8.30;;;5.10;99.90;;;;;;6279863;28;20474;-62
2023/01/16 10:00:44;;;;;;;8.37;7.50;;;5.20;99.90;;;;;;6274583;28;20474;-62
2023/01/16 10:03:49;;;;;;;8.93;7.10;;;5.10;99.90;;;;;;6273767;28;20474;-62
2023/01/16 10:07:02;;;;;;;9.50;7.67;;;5.20;99.90;;;;;;6274314;28;20467;-61
2023/01/16 10:10:30;;;;;;;66.77;43.57;;;5.20;99.90;;;;;;6274310;28;20479;-62
2023/01/16 10:13:58;;;;;;;17.63;12.80;;;5.20;99.90;;;;;;6274402;28;20819;-62
2023/01/16 10:17:11;;;;;;;14.57;9.70;;;5.20;99.90;;;;;;6275055;28;20478;-60
2023/01/16 10:20:31;;;;;;;9.90;7.83;;;5.30;99.90;;;;;;6273014;28;20478;-62
2023/01/16 10:23:49;;;;;;;9.63;7.80;;;5.30;99.90;;;;;;6272767;28;20474;-61
2023/01/16 10:26:58;;;;;;;8.43;6.97;;;5.30;99.90;;;;;;6290219;28;20477;-60
2023/01/16 10:30:08;;;;;;;5.97;5.13;;;5.30;99.90;;;;;;6299004;28;20481;-61
2023/01/16 10:33:16;;;;;;;8.83;7.93;;;5.40;99.90;;;;;;6299537;28;20485;-61
2023/01/16 10:36:23;;;;;;;9.40;8.40;;;5.40;99.90;;;;;;6299267;28;20484;-61
2023/01/16 10:39:33;;;;;;;8.53;7.23;;;5.40;99.90;;;;;;6299705;28;20999;-61
2023/01/16 10:49:27;;;;;;;15.10;13.53;;;5.60;99.90;;;;;;6292506;28;20484;-61
2023/01/16 10:52:33;;;;;;;11.17;7.63;;;5.60;99.90;;;;;;6274428;28;20470;-60
2023/01/16 10:55:39;;;;;;;6.53;5.80;;;5.70;99.90;;;;;;6274539;28;20481;-61
2023/01/16 10:58:42;;;;;;;10.37;7.13;;;5.60;99.90;;;;;;6274046;28;20485;-60
2023/01/16 11:01:47;;;;;;;11.60;6.37;;;5.60;99.90;;;;;;6274001;28;20811;-60
2023/01/16 11:04:51;;;;;;;7.73;5.87;;;5.70;99.90;;;;;;6274319;28;20973;-61
2023/01/16 11:07:57;;;;;;;7.93;5.63;;;5.80;99.90;;;;;;6273928;28;20556;-60
2023/01/16 11:11:00;;;;;;;5.90;5.30;;;5.90;99.90;;;;;;6273780;28;20470;-60
2023/01/16 11:20:57;;;;;;;6.37;5.20;;;6.10;99.90;;;;;;6264906;28;20457;-62
2023/01/16 11:24:12;;;;;;;5.53;4.80;;;6.20;99.90;;;;;;6270899;28;20473;-61
2023/01/16 11:27:19;;;;;;;4.57;3.87;;;6.20;99.90;;;;;;6293630;28;20477;-62
2023/01/16 11:30:29;;;;;;;5.27;4.77;;;6.20;99.90;;;;;;6303357;28;20480;-61
2023/01/16 11:33:36;;;;;;;5.50;4.87;;;6.30;99.90;;;;;;6271108;28;20471;-61
2023/01/16 11:36:40;;;;;;;9.43;6.00;;;6.30;99.90;;;;;;6254034;28;20471;-61
2023/01/16 11:39:49;;;;;;;8.07;5.90;;;6.20;99.90;;;;;;6254062;28;20475;-61
2023/01/16 11:46:38;;;;;;;7.53;5.83;;;6.10;99.90;;;;;;6253424;28;20479;-61
2023/01/16 11:49:48;;;;;;;8.00;7.20;;;6.00;99.90;;;;;;6263388;28;20478;-61
2023/01/16 11:52:51;;;;;;;7.17;6.43;;;6.00;99.90;;;;;;6278130;28;20462;-61
2023/01/16 11:56:29;;;;;;;7.33;5.63;;;5.90;99.90;;;;;;6278053;28;20485;-62
2023/01/16 11:59:55;;;;;;;6.47;5.30;;;5.90;99.90;;;;;;6252957;28;20556;-61
2023/01/16 12:03:30;;;;;;;7.57;6.80;;;5.90;99.90;;;;;;6244462;28;20471;-62
2023/01/16 12:06:47;;;;;;;6.80;5.73;;;5.90;99.90;;;;;;6253416;28;20562;-62
2023/01/16 12:09:59;;;;;;;7.83;7.10;;;5.90;99.90;;;;;;6253272;28;20475;-61
2023/01/16 12:16:37;;;;;;;13.10;7.50;;;5.60;99.90;;;;;;6253245;28;20817;-60
2023/01/16 12:20:18;;;;;;;10.60;7.80;;;5.60;99.90;;;;;;6253641;28;20493;-61
2023/01/16 12:23:35;;;;;;;7.23;6.63;;;5.60;99.90;;;;;;6222533;28;20478;-61
2023/01/16 12:26:47;;;;;;;9.73;8.57;;;5.70;99.90;;;;;;6281900;28;20472;-62
2023/01/16 12:30:03;;;;;;;8.33;7.40;;;5.70;99.90;;;;;;6302189;28;20833;-61
2023/01/16 12:33:13;;;;;;;7.43;6.73;;;5.70;99.90;;;;;;6302206;28;20845;-62
2023/01/16 12:36:27;;;;;;;18.10;13.83;;;5.70;99.90;;;;;;6302444;28;20473;-61
2023/01/16 12:39:41;;;;;;;20.67;13.57;;;5.80;99.90;;;;;;6302094;28;20499;-62
2023/01/16 12:46:22;;;;;;;8.80;7.67;;;6.00;99.90;;;;;;6301438;28;21010;-61
2023/01/16 12:49:43;;;;;;;7.50;6.90;;;6.30;99.90;;;;;;6293950;28;20487;-61
2023/01/16 12:53:00;;;;;;;9.47;8.40;;;6.30;99.90;;;;;;6276937;28;20481;-60
2023/01/16 12:56:20;;;;;;;7.83;7.13;;;6.30;99.90;;;;;;6276869;28;20473;-60
2023/01/16 12:59:28;;;;;;;7.63;6.73;;;6.40;99.90;;;;;;6252468;28;20474;-60
2023/01/16 13:02:38;;;;;;;5.40;4.90;;;6.30;99.90;;;;;;6251771;28;20478;-61
2023/01/16 13:05:44;;;;;;;6.97;5.57;;;6.40;99.90;;;;;;6247540;28;20849;-60
2023/01/16 13:08:59;;;;;;;9.97;5.67;;;6.50;99.90;;;;;;6251524;28;20486;-59
2023/01/16 13:15:35;;;;;;;6.60;5.03;;;6.60;99.90;;;;;;6250400;28;20600;-60
2023/01/16 13:18:43;;;;;;;7.37;6.70;;;6.70;99.90;;;;;;6250182;28;20483;-60
2023/01/16 13:21:58;;;;;;;8.00;5.90;;;6.60;99.90;;;;;;6250661;28;20467;-60
2023/01/16 13:25:07;;;;;;;6.70;6.00;;;6.50;99.90;;;;;;6252968;28;20474;-60
2023/01/16 13:28:20;;;;;;;5.60;5.10;;;6.40;99.90;;;;;;6301211;28;20496;-60
2023/01/16 13:31:35;;;;;;;33.30;21.30;;;6.40;99.90;;;;;;6294611;28;20468;-59
2023/01/16 13:34:43;;;;;;;11.77;8.63;;;6.40;99.90;;;;;;6253740;28;20928;-60
2023/01/16 13:38:02;;;;;;;7.03;6.30;;;6.40;99.90;;;;;;6253099;28;20482;-59
2023/01/16 13:41:15;;;;;;;5.47;4.97;;;6.50;99.90;;;;;;6255201;28;20475;-59
2023/01/16 13:47:43;;;;;;;5.70;5.10;;;6.30;99.90;;;;;;6251218;28;20471;-59
2023/01/16 13:50:53;;;;;;;5.63;5.00;;;6.70;99.90;;;;;;6269186;28;20474;-59
2023/01/16 13:53:59;;;;;;;5.17;4.67;;;7.70;99.90;;;;;;6275672;28;20466;-59
2023/01/16 13:57:04;;;;;;;7.27;4.50;;;7.80;99.90;;;;;;6275028;28;20466;-59
2023/01/16 14:00:13;;;;;;;6.43;5.37;;;7.50;99.90;;;;;;6275591;28;20493;-58
2023/01/16 14:03:21;;;;;;;4.50;4.10;;;7.40;99.90;;;;;;6275000;28;20497;-59
2023/01/16 14:06:27;;;;;;;3.80;3.50;;;7.40;99.90;;;;;;6275382;28;20512;-58
2023/01/16 14:09:30;;;;;;;5.07;4.57;;;7.40;99.90;;;;;;6275277;28;20481;-58
2023/01/16 14:12:34;;;;;;;4.43;4.07;;;7.30;99.90;;;;;;6275142;28;20976;-58
2023/01/16 14:19:24;;;;;;;6.13;4.93;;;7.00;99.90;;;;;;6274998;28;20497;-59
2023/01/16 14:25:59;;;;;;;7.37;5.30;;;6.30;99.90;;;;;;6283709;28;20783;-59
2023/01/16 14:29:07;;;;;;;7.13;6.43;;;6.20;99.90;;;;;;6299052;28;20769;-59
2023/01/16 14:32:19;;;;;;;7.60;6.40;;;6.20;99.90;;;;;;6298447;28;20469;-59
2023/01/16 14:35:25;;;;;;;10.00;8.00;;;6.10;99.90;;;;;;6299591;28;20821;-59
2023/01/16 14:38:33;;;;;;;8.60;7.47;;;5.80;99.90;;;;;;6298604;28;20457;-60
2023/01/16 14:55:48;;;;;;;7.03;6.23;;;4.80;99.90;;;;;;6274544;28;20480;-59
2023/01/16 14:58:57;;;;;;;9.70;7.73;;;4.80;99.90;;;;;;6271871;28;21011;-59
2023/01/16 15:02:30;;;;;;;6.80;6.20;;;4.80;99.90;;;;;;6274021;28;20471;-61
2023/01/16 15:05:53;;;;;;;7.70;6.60;;;4.80;99.90;;;;;;6272938;28;20550;-63
2023/01/16 15:08:59;;;;;;;7.20;6.50;;;4.90;99.90;;;;;;6274048;28;20474;-62
2023/01/16 15:12:11;;;;;;;6.80;6.23;;;5.00;99.90;;;;;;6273843;28;20462;-62
2023/01/16 15:15:24;;;;;;;7.10;6.00;;;4.90;99.90;;;;;;6273989;28;20820;-61
2023/01/16 15:21:59;;;;;;;6.00;4.87;;;5.00;99.90;;;;;;6274000;28;20471;-60
2023/01/16 15:25:14;;;;;;;5.17;4.77;;;4.80;99.90;;;;;;6275242;28;20481;-60
2023/01/16 15:28:24;;;;;;;4.77;4.37;;;4.80;99.90;;;;;;6298739;28;20469;-61
2023/01/16 15:31:32;;;;;;;5.07;4.50;;;4.80;99.90;;;;;;6298565;28;20980;-60
2023/01/16 15:34:35;;;;;;;5.90;5.33;;;4.90;99.90;;;;;;6296348;28;20980;-60
2023/01/16 15:37:49;;;;;;;4.30;3.90;;;4.70;99.90;;;;;;6261984;28;20483;-60
2023/01/16 15:40:54;;;;;;;4.93;4.53;;;4.60;99.90;;;;;;6260520;28;20470;-61
2023/01/16 15:47:48;;;;;;;6.37;5.77;;;4.50;99.90;;;;;;6273490;28;20474;-63
2023/01/16 15:50:56;;;;;;;5.23;4.73;;;4.50;99.90;;;;;;6272947;28;20465;-61
2023/01/16 15:54:00;;;;;;;5.33;4.83;;;4.50;99.90;;;;;;6273184;28;20958;-62
2023/01/16 15:57:04;;;;;;;7.90;5.70;;;4.50;99.90;;;;;;6272790;28;20494;-61
2023/01/16 16:00:30;;;;;;;5.20;4.00;;;4.30;99.90;;;;;;6274044;28;20490;-61
2023/01/16 16:03:40;;;;;;;5.10;4.60;;;4.20;99.90;;;;;;6277786;28;20930;-62
2023/01/16 16:06:44;;;;;;;4.83;4.30;;;4.10;99.90;;;;;;6277978;28;20466;-62
2023/01/16 16:09:51;;;;;;;4.53;4.13;;;4.00;99.90;;;;;;6277766;28;20470;-61
2023/01/16 16:12:55;;;;;;;6.80;5.23;;;3.90;99.90;;;;;;6277796;28;20476;-61
2023/01/16 16:19:34;;;;;;;6.07;5.50;;;3.90;99.90;;;;;;6268395;28;20524;-61
2023/01/16 16:22:50;;;;;;;6.50;5.60;;;3.90;99.90;;;;;;6276035;28;20489;-61
2023/01/16 16:25:56;;;;;;;5.50;5.03;;;3.90;99.90;;;;;;6285604;28;20469;-61
2023/01/16 16:28:59;;;;;;;6.67;5.37;;;3.90;99.90;;;;;;6301996;28;20488;-61
2023/01/16 16:32:08;;;;;;;5.53;4.83;;;3.80;99.90;;;;;;6302179;28;20483;-60
2023/01/16 16:35:19;;;;;;;6.47;5.83;;;3.80;99.90;;;;;;6302133;28;20484;-60
2023/01/16 16:38:25;;;;;;;6.17;5.00;;;3.80;99.90;;;;;;6301722;28;20493;-61
2023/01/16 16:45:12;;;;;;;6.13;5.33;;;3.90;99.90;;;;;;6251810;28;20468;-65
2023/01/16 16:48:30;;;;;;;7.40;5.40;;;3.70;99.90;;;;;;6251033;28;20479;-65
2023/01/16 16:51:35;;;;;;;5.53;5.03;;;3.80;99.90;;;;;;6252126;28;20467;-64
2023/01/16 16:54:40;;;;;;;6.80;5.90;;;3.70;99.90;;;;;;6252807;28;20467;-65
2023/01/16 16:57:44;;;;;;;6.50;5.77;;;3.70;99.90;;;;;;6265345;28;20463;-65
2023/01/16 17:00:48;;;;;;;6.63;6.03;;;3.70;99.90;;;;;;6276650;28;20480;-65
2023/01/16 17:03:56;;;;;;;8.23;7.23;;;3.70;99.90;;;;;;6277033;28;20482;-65
2023/01/16 17:06:59;;;;;;;7.83;7.00;;;3.80;99.90;;;;;;6276550;28;20494;-65
2023/01/16 17:10:02;;;;;;;7.40;6.50;;;3.90;99.90;;;;;;6276790;28;20985;-66
2023/01/16 17:13:05;;;;;;;8.30;6.97;;;4.00;99.90;;;;;;6275175;28;20843;-65
2023/01/16 17:16:16;;;;;;;10.93;8.50;;;3.90;99.90;;;;;;6276171;28;20470;-66
2023/01/16 17:19:25;;;;;;;11.57;9.10;;;3.90;99.90;;;;;;6276151;28;20485;-65
2023/01/16 17:22:28;;;;;;;11.17;9.40;;;3.90;99.90;;;;;;6248403;28;20471;-65
2023/01/16 17:25:32;;;;;;;11.80;9.83;;;3.90;99.90;;;;;;6258733;28;20482;-65
2023/01/16 17:28:36;;;;;;;13.27;11.50;;;3.80;99.90;;;;;;6261491;28;20471;-65
2023/01/16 17:31:41;;;;;;;11.90;9.63;;;3.80;99.90;;;;;;6251484;28;20482;-65
2023/01/16 17:34:46;;;;;;;15.43;9.10;;;3.70;99.90;;;;;;6251155;28;20957;-64
2023/01/16 17:37:50;;;;;;;10.53;8.40;;;3.80;99.90;;;;;;6251285;28;20478;-64
2023/01/16 17:40:53;;;;;;;16.27;11.47;;;3.80;99.90;;;;;;6250036;28;20479;-63
2023/01/16 17:47:20;;;;;;;11.20;9.43;;;3.90;99.90;;;;;;6275408;28;20632;-60
2023/01/16 17:50:25;;;;;;;13.97;9.80;;;3.90;99.90;;;;;;6268183;28;20482;-60
2023/01/16 17:53:30;;;;;;;10.90;9.00;;;3.80;99.90;;;;;;6250668;28;20490;-63
2023/01/16 17:56:33;;;;;;;10.53;8.70;;;3.90;99.90;;;;;;6254050;28;20479;-63
2023/01/16 17:59:37;;;;;;;8.30;6.67;;;3.90;99.90;;;;;;6275848;28;20458;-62
2023/01/16 18:02:41;;;;;;;7.33;5.77;;;3.90;99.90;;;;;;6275680;28;20937;-63
2023/01/16 18:05:46;;;;;;;9.20;7.30;;;4.00;99.90;;;;;;6275508;28;20474;-65
2023/01/16 18:08:51;;;;;;;8.50;7.50;;;4.10;99.90;;;;;;6275419;28;20569;-65
2023/01/16 18:18:40;;;;;;;15.70;11.50;;;4.00;99.90;;;;;;6274752;28;20489;-62